createdAt,value
2023-01-21T00:00:22.447Z,956.79
2023-01-21T00:01:22.428Z,956.8
2023-01-21T00:02:22.522Z,956.82
2023-01-21T00:03:22.505Z,956.83
2023-01-21T00:04:22.364Z,956.81
2023-01-21T00:05:22.371Z,956.81
2023-01-21T00:06:22.319Z,956.82
2023-01-21T00:07:22.311Z,956.84
2023-01-21T00:08:22.277Z,956.76
2023-01-21T00:09:22.279Z,956.85
2023-01-21T00:10:22.235Z,956.81
2023-01-21T00:11:22.213Z,956.8
2023-01-21T00:12:22.193Z,956.82
2023-01-21T00:13:22.171Z,956.79
2023-01-21T00:14:22.149Z,956.82
2023-01-21T00:15:22.135Z,956.78
2023-01-21T00:16:22.108Z,956.77
2023-01-21T00:17:22.087Z,956.81
2023-01-21T00:18:22.075Z,956.84
2023-01-21T00:19:22.101Z,956.81
2023-01-21T00:20:22.070Z,956.79
2023-01-21T00:21:22.055Z,956.79
2023-01-21T00:22:21.979Z,956.81
2023-01-21T00:23:21.964Z,956.82
2023-01-21T00:24:21.939Z,956.83
2023-01-21T00:25:21.927Z,956.86
2023-01-21T00:26:21.896Z,956.85
2023-01-21T00:27:21.880Z,956.9
2023-01-21T00:28:21.853Z,956.87
2023-01-21T00:29:21.829Z,956.88
2023-01-21T00:30:21.828Z,956.93
2023-01-21T00:31:21.906Z,956.85
2023-01-21T00:32:21.767Z,956.88
2023-01-21T00:33:21.746Z,956.9
2023-01-21T00:34:21.727Z,956.93
2023-01-21T00:35:21.701Z,956.93
2023-01-21T00:36:21.680Z,956.96
2023-01-21T00:37:21.687Z,956.99
2023-01-21T00:38:21.638Z,956.94
2023-01-21T00:39:21.622Z,956.98
2023-01-21T00:40:21.596Z,957
2023-01-21T00:41:21.574Z,956.92
2023-01-21T00:42:21.556Z,956.97
2023-01-21T00:43:21.531Z,956.95
2023-01-21T00:44:21.509Z,956.98
2023-01-21T00:45:21.487Z,957
2023-01-21T00:46:21.488Z,956.99
2023-01-21T00:47:21.456Z,957
2023-01-21T00:48:21.422Z,957.02
2023-01-21T00:49:21.400Z,956.98
2023-01-21T00:50:21.383Z,957.01
2023-01-21T00:51:21.361Z,957.03
2023-01-21T00:52:21.345Z,957
2023-01-21T00:53:21.341Z,957
2023-01-21T00:54:21.296Z,957.06
2023-01-21T00:55:21.286Z,957.05
2023-01-21T00:56:21.259Z,957.1
2023-01-21T00:57:21.232Z,957.08
2023-01-21T00:58:21.210Z,957.1
2023-01-21T00:59:21.187Z,957.06
2023-01-21T01:00:21.170Z,957.09
2023-01-21T01:01:21.211Z,957.08
2023-01-21T01:02:21.162Z,957.13
2023-01-21T01:03:21.102Z,957.12
2023-01-21T01:04:21.081Z,957.09
2023-01-21T01:05:21.058Z,957.14
2023-01-21T01:06:21.039Z,957.13
2023-01-21T01:07:21.018Z,957.1
2023-01-21T01:08:20.997Z,957.11
2023-01-21T01:09:21.001Z,957.13
2023-01-21T01:10:20.954Z,957.08
2023-01-21T01:11:20.935Z,957.1
2023-01-21T01:12:20.910Z,957.09
2023-01-21T01:13:20.890Z,957.15
2023-01-21T01:14:20.882Z,957.15
2023-01-21T01:15:20.851Z,957.16
2023-01-21T01:16:20.824Z,957.16
2023-01-21T01:17:20.803Z,957.14
2023-01-21T01:18:20.780Z,957.13
2023-01-21T01:19:20.760Z,957.18
2023-01-21T01:20:20.744Z,957.2
2023-01-21T01:21:20.722Z,957.19
2023-01-21T01:22:20.693Z,957.22
2023-01-21T01:23:20.680Z,957.16
2023-01-21T01:24:20.658Z,957.19
2023-01-21T01:25:20.662Z,957.2
2023-01-21T01:26:20.628Z,957.21
2023-01-21T01:27:20.591Z,957.2
2023-01-21T01:28:20.567Z,957.18
2023-01-21T01:29:20.547Z,957.22
2023-01-21T01:30:20.535Z,957.24
2023-01-21T01:31:20.595Z,957.24
2023-01-21T01:32:20.483Z,957.24
2023-01-21T01:33:20.462Z,957.24
2023-01-21T01:34:20.441Z,957.24
2023-01-21T01:35:20.961Z,957.22
2023-01-21T01:36:20.942Z,957.24
2023-01-21T01:37:21.127Z,957.19
2023-01-21T01:38:20.897Z,957.21
2023-01-21T01:39:20.878Z,957.26
2023-01-21T01:40:20.853Z,957.22
2023-01-21T01:41:20.856Z,957.29
2023-01-21T01:42:20.809Z,957.26
2023-01-21T01:43:20.791Z,957.26
2023-01-21T01:44:20.771Z,957.26
2023-01-21T01:45:20.749Z,957.28
2023-01-21T01:46:20.755Z,957.29
2023-01-21T01:47:20.708Z,957.31
2023-01-21T01:48:20.679Z,957.32
2023-01-21T01:49:20.660Z,957.35
2023-01-21T01:50:20.636Z,957.32
2023-01-21T01:51:20.621Z,957.33
2023-01-21T01:52:20.596Z,957.32
2023-01-21T01:53:20.575Z,957.32
2023-01-21T01:54:20.554Z,957.31
2023-01-21T01:55:20.532Z,957.36
2023-01-21T01:56:20.512Z,957.33
2023-01-21T01:57:20.516Z,957.25
2023-01-21T01:58:20.469Z,957.25
2023-01-21T01:59:20.642Z,957.28
2023-01-21T02:00:20.581Z,957.28
2023-01-21T02:01:20.594Z,957.26
2023-01-21T02:02:20.538Z,957.25
2023-01-21T02:03:20.516Z,957.26
2023-01-21T02:04:20.499Z,957.28
2023-01-21T02:05:20.472Z,957.29
2023-01-21T02:06:20.453Z,957.25
2023-01-21T02:07:20.429Z,957.31
2023-01-21T02:08:20.409Z,957.34
2023-01-21T02:09:20.385Z,957.31
2023-01-21T02:10:20.366Z,957.26
2023-01-21T02:11:20.348Z,957.29
2023-01-21T02:12:20.321Z,957.32
2023-01-21T02:13:20.322Z,957.27
2023-01-21T02:14:20.278Z,957.29
2023-01-21T02:15:20.259Z,957.27
2023-01-21T02:16:20.266Z,957.29
2023-01-21T02:17:20.213Z,957.32
2023-01-21T02:18:20.192Z,957.28
2023-01-21T02:19:20.168Z,957.3
2023-01-21T02:20:20.147Z,957.36
2023-01-21T02:21:20.127Z,957.31
2023-01-21T02:22:20.112Z,957.39
2023-01-21T02:23:20.105Z,957.35
2023-01-21T02:24:20.069Z,957.32
2023-01-21T02:25:20.046Z,957.32
2023-01-21T02:26:20.031Z,957.31
2023-01-21T02:27:27.014Z,957.3
2023-01-21T02:28:19.975Z,957.27
2023-01-21T02:29:19.984Z,957.34
2023-01-21T02:30:19.935Z,957.34
2023-01-21T02:31:20.055Z,957.32
2023-01-21T02:32:19.888Z,957.29
2023-01-21T02:33:19.867Z,957.34
2023-01-21T02:34:19.847Z,957.35
2023-01-21T02:35:19.825Z,957.38
2023-01-21T02:36:19.802Z,957.35
2023-01-21T02:37:19.779Z,957.34
2023-01-21T02:38:19.758Z,957.35
2023-01-21T02:39:19.740Z,957.34
2023-01-21T02:40:19.715Z,957.33
2023-01-21T02:41:19.695Z,957.35
2023-01-21T02:42:19.672Z,957.31
2023-01-21T02:43:19.650Z,957.37
2023-01-21T02:44:19.631Z,957.32
2023-01-21T02:45:19.638Z,957.35
2023-01-21T02:46:19.620Z,957.32
2023-01-21T02:47:19.561Z,957.29
2023-01-21T02:48:19.545Z,957.32
2023-01-21T02:49:19.524Z,957.33
2023-01-21T02:50:19.520Z,957.32
2023-01-21T02:51:19.531Z,957.33
2023-01-21T02:52:19.454Z,957.32
2023-01-21T02:53:19.451Z,957.35
2023-01-21T02:54:19.409Z,957.41
2023-01-21T02:55:19.388Z,957.36
2023-01-21T02:56:19.367Z,957.33
2023-01-21T02:57:19.349Z,957.38
2023-01-21T02:58:19.324Z,957.36
2023-01-21T02:59:19.305Z,957.42
2023-01-21T03:00:19.546Z,957.47
2023-01-21T03:01:19.288Z,957.47
2023-01-21T03:02:19.257Z,957.44
2023-01-21T03:03:19.218Z,957.44
2023-01-21T03:04:19.194Z,957.42
2023-01-21T03:05:19.172Z,957.43
2023-01-21T03:06:19.150Z,957.44
2023-01-21T03:07:19.136Z,957.44
2023-01-21T03:08:19.115Z,957.41
2023-01-21T03:09:19.088Z,957.41
2023-01-21T03:10:19.063Z,957.41
2023-01-21T03:11:19.043Z,957.38
2023-01-21T03:12:19.024Z,957.4
2023-01-21T03:13:18.999Z,957.42
2023-01-21T03:14:18.997Z,957.47
2023-01-21T03:15:18.957Z,957.46
2023-01-21T03:16:18.982Z,957.41
2023-01-21T03:17:18.946Z,957.46
2023-01-21T03:18:18.891Z,957.44
2023-01-21T03:19:18.870Z,957.44
2023-01-21T03:20:18.970Z,957.45
2023-01-21T03:21:18.829Z,957.42
2023-01-21T03:22:18.808Z,957.38
2023-01-21T03:23:18.783Z,957.46
2023-01-21T03:24:18.759Z,957.48
2023-01-21T03:25:18.742Z,957.49
2023-01-21T03:26:18.716Z,957.47
2023-01-21T03:27:18.695Z,957.48
2023-01-21T03:28:18.675Z,957.52
2023-01-21T03:29:18.652Z,957.47
2023-01-21T03:30:18.959Z,957.47
2023-01-21T03:31:18.621Z,957.5
2023-01-21T03:32:18.586Z,957.49
2023-01-21T03:49:48.093Z,957.4
2023-01-21T03:50:48.069Z,957.47
2023-01-21T03:51:48.021Z,957.5
2023-01-21T03:52:48.000Z,957.5
2023-01-21T03:53:47.975Z,957.46
2023-01-21T03:54:47.955Z,957.45
2023-01-21T03:55:47.934Z,957.5
2023-01-21T03:56:47.919Z,957.47
2023-01-21T03:57:47.883Z,957.5
2023-01-21T03:58:47.864Z,957.44
2023-01-21T03:59:47.839Z,957.49
2023-01-21T04:00:47.831Z,957.5
2023-01-21T04:01:47.802Z,957.46
2023-01-21T04:02:47.772Z,957.47
2023-01-21T04:03:47.749Z,957.47
2023-01-21T04:04:47.737Z,957.52
2023-01-21T04:05:47.732Z,957.54
2023-01-21T04:06:47.685Z,957.59
2023-01-21T04:07:47.659Z,957.58
2023-01-21T04:08:47.644Z,957.6
2023-01-21T04:09:47.617Z,957.62
2023-01-21T04:10:47.595Z,957.62
2023-01-21T04:11:47.571Z,957.61
2023-01-21T04:12:47.551Z,957.58
2023-01-21T04:13:47.528Z,957.59
2023-01-21T04:14:47.510Z,957.59
2023-01-21T04:15:47.485Z,957.59
2023-01-21T04:16:47.463Z,957.57
2023-01-21T04:17:47.440Z,957.61
2023-01-21T04:18:47.421Z,957.62
2023-01-21T04:19:47.395Z,957.6
2023-01-21T04:20:47.380Z,957.61
2023-01-21T04:21:47.374Z,957.6
2023-01-21T04:22:47.332Z,957.62
2023-01-21T04:23:47.317Z,957.61
2023-01-21T04:24:47.288Z,957.65
2023-01-21T04:25:47.263Z,957.6
2023-01-21T04:26:47.242Z,957.62
2023-01-21T04:27:47.225Z,957.6
2023-01-21T04:28:47.203Z,957.58
2023-01-21T04:29:47.175Z,957.66
2023-01-21T04:30:47.177Z,957.64
2023-01-21T04:31:47.159Z,957.66
2023-01-21T04:32:47.111Z,957.71
2023-01-21T04:33:47.096Z,957.7
2023-01-21T04:34:47.071Z,957.71
2023-01-21T04:35:47.046Z,957.74
2023-01-21T04:36:47.033Z,957.66
2023-01-21T04:37:47.029Z,957.72
2023-01-21T04:38:46.991Z,957.71
2023-01-21T04:39:47.005Z,957.65
2023-01-21T04:40:46.941Z,957.65
2023-01-21T04:41:46.913Z,957.75
2023-01-21T04:42:46.891Z,957.71
2023-01-21T04:43:46.869Z,957.73
2023-01-21T04:44:46.849Z,957.67
2023-01-21T04:45:46.891Z,957.64
2023-01-21T04:46:46.803Z,957.71
2023-01-21T04:47:46.794Z,957.75
2023-01-21T04:48:46.759Z,957.75
2023-01-21T04:49:46.740Z,957.7
2023-01-21T04:50:46.834Z,957.73
2023-01-21T04:51:46.695Z,957.72
2023-01-21T04:52:46.670Z,957.72
2023-01-21T04:53:46.676Z,957.75
2023-01-21T04:54:46.629Z,957.79
2023-01-21T04:55:46.607Z,957.77
2023-01-21T04:56:46.584Z,957.72
2023-01-21T04:57:46.575Z,957.75
2023-01-21T04:58:46.539Z,957.76
2023-01-21T04:59:46.520Z,957.79
2023-01-21T05:00:46.596Z,957.81
2023-01-21T05:01:46.582Z,957.77
2023-01-21T05:02:46.553Z,957.82
2023-01-21T05:03:46.534Z,957.77
2023-01-21T05:04:46.514Z,957.78
2023-01-21T05:05:46.488Z,957.76
2023-01-21T05:06:46.465Z,957.76
2023-01-21T05:07:46.443Z,957.76
2023-01-21T05:08:46.426Z,957.79
2023-01-21T05:09:46.421Z,957.76
2023-01-21T05:10:46.378Z,957.76
2023-01-21T05:11:46.354Z,957.78
2023-01-21T05:12:46.331Z,957.82
2023-01-21T05:13:46.311Z,957.8
2023-01-21T05:14:46.298Z,957.85
2023-01-21T05:15:46.327Z,957.77
2023-01-21T05:16:46.273Z,957.85
2023-01-21T05:17:46.227Z,957.83
2023-01-21T05:18:46.766Z,957.83
2023-01-21T05:19:46.180Z,957.89
2023-01-21T05:20:46.189Z,957.88
2023-01-21T05:21:46.136Z,957.88
2023-01-21T05:22:46.120Z,957.91
2023-01-21T05:23:46.093Z,957.89
2023-01-21T05:24:46.077Z,957.95
2023-01-21T05:25:46.077Z,957.9
2023-01-21T05:26:46.025Z,957.88
2023-01-21T05:27:46.009Z,957.96
2023-01-21T05:28:45.982Z,957.94
2023-01-21T05:29:45.963Z,957.98
2023-01-21T05:30:45.980Z,957.95
2023-01-21T05:31:46.023Z,957.92
2023-01-21T05:32:45.895Z,957.97
2023-01-21T05:33:45.874Z,957.95
2023-01-21T05:34:45.851Z,958
2023-01-21T05:35:45.828Z,957.97
2023-01-21T05:36:45.808Z,958.03
2023-01-21T05:37:45.786Z,958
2023-01-21T05:38:45.772Z,958.05
2023-01-21T05:39:45.743Z,958.04
2023-01-21T05:40:45.720Z,958.05
2023-01-21T05:41:45.719Z,958.03
2023-01-21T05:42:45.677Z,958.1
2023-01-21T05:43:45.652Z,958.07
2023-01-21T05:44:45.647Z,958.16
2023-01-21T05:45:45.650Z,958.13
2023-01-21T05:46:45.589Z,958.15
2023-01-21T05:47:45.565Z,958.17
2023-01-21T05:48:45.564Z,958.18
2023-01-21T05:49:45.526Z,958.13
2023-01-21T05:50:45.537Z,958.21
2023-01-21T05:51:45.508Z,958.23
2023-01-21T05:52:45.463Z,958.21
2023-01-21T05:53:45.441Z,958.22
2023-01-21T05:55:00.192Z,958.2
2023-01-21T05:55:45.390Z,958.19
2023-01-21T05:56:45.377Z,958.23
2023-01-21T05:57:45.375Z,958.23
2023-01-21T05:58:45.327Z,958.26
2023-01-21T05:59:45.302Z,958.23
2023-01-21T06:00:45.292Z,958.29
2023-01-21T06:01:45.261Z,958.27
2023-01-21T06:02:45.295Z,958.25
2023-01-21T06:03:45.254Z,958.26
2023-01-21T06:04:45.193Z,958.28
2023-01-21T06:05:45.172Z,958.3
2023-01-21T06:06:45.149Z,958.33
2023-01-21T06:07:45.125Z,958.34
2023-01-21T06:08:45.104Z,958.32
2023-01-21T06:09:45.084Z,958.31
2023-01-21T06:10:45.061Z,958.36
2023-01-21T06:11:45.036Z,958.36
2023-01-21T06:12:45.027Z,958.39
2023-01-21T06:13:45.023Z,958.39
2023-01-21T06:14:44.973Z,958.38
2023-01-21T06:15:44.990Z,958.42
2023-01-21T06:16:44.933Z,958.41
2023-01-21T06:17:47.263Z,958.38
2023-01-21T06:18:44.889Z,958.4
2023-01-21T06:19:44.861Z,958.48
2023-01-21T06:20:44.839Z,958.46
2023-01-21T06:21:44.817Z,958.47
2023-01-21T06:22:44.797Z,958.48
2023-01-21T06:23:44.778Z,958.46
2023-01-21T06:24:44.749Z,958.47
2023-01-21T06:25:44.729Z,958.44
2023-01-21T06:26:44.713Z,958.48
2023-01-21T06:27:44.685Z,958.47
2023-01-21T06:28:44.662Z,958.44
2023-01-21T06:29:44.668Z,958.47
2023-01-21T06:30:44.717Z,958.45
2023-01-21T06:31:44.696Z,958.42
2023-01-21T06:32:44.573Z,958.43
2023-01-21T06:33:44.555Z,958.47
2023-01-21T06:34:46.554Z,958.39
2023-01-21T06:35:44.507Z,958.45
2023-01-21T06:36:44.489Z,958.43
2023-01-21T06:37:44.468Z,958.44
2023-01-21T06:38:44.442Z,958.46
2023-01-21T06:39:44.419Z,958.45
2023-01-21T06:40:44.397Z,958.42
2023-01-21T06:41:44.376Z,958.47
2023-01-21T06:42:44.352Z,958.48
2023-01-21T06:43:44.330Z,958.49
2023-01-21T06:44:44.308Z,958.42
2023-01-21T06:45:44.318Z,958.45
2023-01-21T06:46:48.961Z,958.5
2023-01-21T06:47:44.253Z,958.5
2023-01-21T06:48:44.229Z,958.51
2023-01-21T06:49:44.209Z,958.52
2023-01-21T06:50:44.194Z,958.5
2023-01-21T06:51:44.164Z,958.53
2023-01-21T06:52:44.156Z,958.54
2023-01-21T06:53:44.121Z,958.54
2023-01-21T06:54:44.097Z,958.53
2023-01-21T06:55:44.081Z,958.54
2023-01-21T06:56:44.060Z,958.54
2023-01-21T06:57:44.032Z,958.58
2023-01-21T06:58:44.009Z,958.6
2023-01-21T06:59:43.987Z,958.55
2023-01-21T07:00:43.967Z,958.56
2023-01-21T07:01:44.020Z,958.58
2023-01-21T07:02:43.948Z,958.6
2023-01-21T07:03:43.900Z,958.63
2023-01-21T07:04:44.248Z,958.64
2023-01-21T07:05:44.204Z,958.67
2023-01-21T07:06:44.182Z,958.61
2023-01-21T07:07:44.160Z,958.59
2023-01-21T07:08:44.139Z,958.67
2023-01-21T07:09:44.115Z,958.62
2023-01-21T07:10:46.215Z,958.67
2023-01-21T07:11:44.070Z,958.65
2023-01-21T07:12:44.048Z,958.61
2023-01-21T07:13:44.029Z,958.66
2023-01-21T07:14:44.003Z,958.6
2023-01-21T07:15:43.998Z,958.64
2023-01-21T07:16:43.963Z,958.68
2023-01-21T07:17:43.963Z,958.66
2023-01-21T07:18:43.915Z,958.74
2023-01-21T07:19:43.894Z,958.81
2023-01-21T07:20:43.872Z,958.77
2023-01-21T07:21:43.851Z,958.79
2023-01-21T07:22:43.832Z,958.82
2023-01-21T07:23:43.815Z,958.85
2023-01-21T07:24:43.784Z,958.86
2023-01-21T07:25:43.766Z,958.83
2023-01-21T07:26:43.745Z,958.9
2023-01-21T07:27:43.714Z,958.89
2023-01-21T07:28:43.697Z,958.82
2023-01-21T07:29:43.672Z,958.91
2023-01-21T07:30:43.765Z,958.92
2023-01-21T07:31:43.740Z,958.89
2023-01-21T07:32:43.607Z,958.86
2023-01-21T07:33:43.607Z,958.84
2023-01-21T07:34:43.565Z,958.85
2023-01-21T07:35:43.547Z,958.91
2023-01-21T07:36:43.520Z,958.86
2023-01-21T07:37:43.494Z,958.93
2023-01-21T07:38:43.477Z,958.91
2023-01-21T07:39:43.458Z,958.97
2023-01-21T07:40:43.431Z,958.95
2023-01-21T07:41:43.407Z,958.97
2023-01-21T07:42:43.394Z,958.97
2023-01-21T07:43:43.363Z,958.98
2023-01-21T07:44:43.346Z,958.99
2023-01-21T07:45:43.319Z,958.99
2023-01-21T07:46:43.327Z,959.05
2023-01-21T07:47:43.274Z,959.01
2023-01-21T07:48:43.253Z,959.01
2023-01-21T07:49:43.259Z,958.99
2023-01-21T07:50:43.212Z,959
2023-01-21T07:51:43.187Z,958.98
2023-01-21T07:52:43.166Z,959.01
2023-01-21T07:53:43.143Z,959.02
2023-01-21T07:54:43.122Z,959.06
2023-01-21T07:55:43.099Z,958.95
2023-01-21T07:56:43.113Z,959
2023-01-21T07:57:43.054Z,958.95
2023-01-21T07:58:43.035Z,958.98
2023-01-21T07:59:43.016Z,958.93
2023-01-21T08:00:42.992Z,958.95
2023-01-21T08:01:43.077Z,958.99
2023-01-21T08:02:43.019Z,958.99
2023-01-21T08:03:42.928Z,958.98
2023-01-21T08:04:42.900Z,958.97
2023-01-21T08:05:42.913Z,958.97
2023-01-21T08:06:42.887Z,958.98
2023-01-21T08:07:42.837Z,958.9
2023-01-21T08:08:43.591Z,958.95
2023-01-21T08:09:43.581Z,958.95
2023-01-21T08:10:43.548Z,958.95
2023-01-21T08:11:43.534Z,958.97
2023-01-21T08:12:43.503Z,958.97
2023-01-21T08:13:43.483Z,958.92
2023-01-21T08:14:43.459Z,958.96
2023-01-21T08:15:43.439Z,958.98
2023-01-21T08:16:43.418Z,958.96
2023-01-21T08:17:43.398Z,958.96
2023-01-21T08:18:43.375Z,958.97
2023-01-21T08:19:43.349Z,958.97
2023-01-21T08:20:43.325Z,959
2023-01-21T08:21:43.331Z,958.99
2023-01-21T08:22:43.283Z,958.96
2023-01-21T08:23:43.260Z,958.94
2023-01-21T08:24:43.245Z,958.97
2023-01-21T08:25:43.219Z,959.04
2023-01-21T08:26:43.193Z,959
2023-01-21T08:27:43.172Z,959
2023-01-21T08:28:43.153Z,958.97
2023-01-21T08:29:43.128Z,959.05
2023-01-21T08:30:43.127Z,958.97
2023-01-21T08:31:43.131Z,959.03
2023-01-21T08:32:43.059Z,959
2023-01-21T08:33:43.038Z,958.93
2023-01-21T08:34:43.049Z,958.99
2023-01-21T08:35:42.995Z,958.96
2023-01-21T08:36:42.972Z,959
2023-01-21T08:37:42.982Z,959
2023-01-21T08:38:42.927Z,958.98
2023-01-21T08:39:42.908Z,958.93
2023-01-21T08:40:42.885Z,958.98
2023-01-21T08:41:42.863Z,959.03
2023-01-21T08:42:42.839Z,958.98
2023-01-21T08:43:42.829Z,958.99
2023-01-21T08:44:42.805Z,958.97
2023-01-21T08:45:42.847Z,959.03
2023-01-21T08:46:42.750Z,959.02
2023-01-21T08:47:42.735Z,959.05
2023-01-21T08:48:42.711Z,959.04
2023-01-21T08:49:42.696Z,959.02
2023-01-21T08:50:42.662Z,959.05
2023-01-21T08:51:42.641Z,959.07
2023-01-21T08:52:42.617Z,959.08
2023-01-21T08:53:42.628Z,959.11
2023-01-21T08:54:42.577Z,959.12
2023-01-21T08:55:42.552Z,959.1
2023-01-21T08:56:42.537Z,959.07
2023-01-21T08:57:42.509Z,959.12
2023-01-21T08:58:42.486Z,959.07
2023-01-21T08:59:42.467Z,959.1
2023-01-21T09:00:42.459Z,959.11
2023-01-21T09:01:42.459Z,959.15
2023-01-21T09:02:42.398Z,959.06
2023-01-21T09:03:42.374Z,959.16
2023-01-21T09:04:42.354Z,959.06
2023-01-21T09:05:42.331Z,959.12
2023-01-21T09:06:42.312Z,959.13
2023-01-21T09:07:42.287Z,959.14
2023-01-21T09:08:42.265Z,959.21
2023-01-21T09:09:42.271Z,959.1
2023-01-21T09:10:42.227Z,959.11
2023-01-21T09:11:42.199Z,959.06
2023-01-21T09:12:42.180Z,959.09
2023-01-21T09:13:42.155Z,959.18
2023-01-21T09:14:42.135Z,959.09
2023-01-21T09:15:42.111Z,959.12
2023-01-21T09:16:42.137Z,959.17
2023-01-21T09:17:42.068Z,959.12
2023-01-21T09:18:42.046Z,959.11
2023-01-21T09:19:42.024Z,959.16
2023-01-21T09:20:42.005Z,959.07
2023-01-21T09:21:41.984Z,959.15
2023-01-21T09:22:41.958Z,959.13
2023-01-21T09:23:41.936Z,959.09
2023-01-21T09:24:41.928Z,959.17
2023-01-21T09:25:41.921Z,959.16
2023-01-21T09:26:41.871Z,959.12
2023-01-21T09:27:41.847Z,959.21
2023-01-21T09:28:41.825Z,959.18
2023-01-21T09:29:41.802Z,959.14
2023-01-21T09:30:41.819Z,959.17
2023-01-21T09:31:41.832Z,959.06
2023-01-21T09:32:41.738Z,959.08
2023-01-21T09:33:41.715Z,959.17
2023-01-21T09:34:41.696Z,959.16
2023-01-21T09:35:41.673Z,959.21
2023-01-21T09:36:41.656Z,959.13
2023-01-21T09:37:41.627Z,959.16
2023-01-21T09:38:41.607Z,959.14
2023-01-21T09:39:41.597Z,959.15
2023-01-21T09:40:41.566Z,958.99
2023-01-21T09:41:41.575Z,959.12
2023-01-21T09:42:41.519Z,959.14
2023-01-21T09:43:41.496Z,959.26
2023-01-21T09:44:41.475Z,959.14
2023-01-21T09:45:41.472Z,959.14
2023-01-21T09:46:41.439Z,959.15
2023-01-21T09:47:41.407Z,959.14
2023-01-21T09:48:41.388Z,959.23
2023-01-21T09:49:41.369Z,959.17
2023-01-21T09:50:41.352Z,959.19
2023-01-21T09:51:41.333Z,959.17
2023-01-21T09:52:41.306Z,959.2
2023-01-21T09:53:41.286Z,959.24
2023-01-21T09:54:41.254Z,959.19
2023-01-21T09:55:41.234Z,959.19
2023-01-21T09:56:41.210Z,959.29
2023-01-21T09:57:41.221Z,959.26
2023-01-21T09:58:41.166Z,959.3
2023-01-21T09:59:41.152Z,959.29
2023-01-21T10:00:41.125Z,959.25
2023-01-21T10:01:41.100Z,959.24
2023-01-21T10:02:41.077Z,959.29
2023-01-21T10:03:41.062Z,959.22
2023-01-21T10:04:41.120Z,959.27
2023-01-21T10:05:41.022Z,959.25
2023-01-21T10:06:40.994Z,959.22
2023-01-21T10:07:40.973Z,959.17
2023-01-21T10:08:40.953Z,959.23
2023-01-21T10:09:40.929Z,959.23
2023-01-21T10:10:40.905Z,959.17
2023-01-21T10:11:40.895Z,959.23
2023-01-21T10:12:40.871Z,959.21
2023-01-21T10:13:40.880Z,959.17
2023-01-21T10:14:40.827Z,959.23
2023-01-21T10:15:40.797Z,959.26
2023-01-21T10:16:40.872Z,959.16
2023-01-21T10:17:40.754Z,959.2
2023-01-21T10:18:40.730Z,959.28
2023-01-21T10:19:40.709Z,959.23
2023-01-21T10:20:40.686Z,959.21
2023-01-21T10:21:40.667Z,959.27
2023-01-21T10:22:40.642Z,959.25
2023-01-21T10:23:42.756Z,959.27
2023-01-21T10:24:40.609Z,959.26
2023-01-21T10:25:40.580Z,959.17
2023-01-21T10:26:40.565Z,959.2
2023-01-21T10:27:40.534Z,959.18
2023-01-21T10:28:40.512Z,959.2
2023-01-21T10:29:40.526Z,959.27
2023-01-21T10:30:40.545Z,959.18
2023-01-21T10:31:40.603Z,959.23
2023-01-21T10:32:40.426Z,959.2
2023-01-21T10:33:40.411Z,959.21
2023-01-21T10:34:40.383Z,959.17
2023-01-21T10:35:40.360Z,959.19
2023-01-21T10:36:40.364Z,959.22
2023-01-21T10:37:40.317Z,959.28
2023-01-21T10:38:40.293Z,959.22
2023-01-21T10:39:40.272Z,959.18
2023-01-21T10:40:40.254Z,959.21
2023-01-21T10:41:40.227Z,959.23
2023-01-21T10:42:40.217Z,959.27
2023-01-21T10:43:40.195Z,959.18
2023-01-21T10:44:40.165Z,959.19
2023-01-21T10:45:40.169Z,959.16
2023-01-21T10:46:40.120Z,959.19
2023-01-21T10:47:40.096Z,959.17
2023-01-21T10:48:40.081Z,959.18
2023-01-21T10:49:40.062Z,959.15
2023-01-21T10:50:40.034Z,959.17
2023-01-21T10:51:40.012Z,959.14
2023-01-21T10:52:39.993Z,959.16
2023-01-21T10:53:39.973Z,959.16
2023-01-21T10:54:39.948Z,959.16
2023-01-21T10:55:39.925Z,959.15
2023-01-21T10:56:39.902Z,959.19
2023-01-21T10:57:39.880Z,959.19
2023-01-21T10:58:39.864Z,959.21
2023-01-21T10:59:39.849Z,959.22
2023-01-21T11:00:39.816Z,959.18
2023-01-21T11:01:39.901Z,959.15
2023-01-21T11:02:39.807Z,959.15
2023-01-21T11:03:39.749Z,959.19
2023-01-21T11:04:39.742Z,959.15
2023-01-21T11:05:39.711Z,959.13
2023-01-21T11:06:39.690Z,959.12
2023-01-21T11:07:39.661Z,959.08
2023-01-21T11:08:39.667Z,959.14
2023-01-21T11:09:39.624Z,959.17
2023-01-21T11:10:39.599Z,959.17
2023-01-21T11:11:39.577Z,959.15
2023-01-21T11:12:39.556Z,959.16
2023-01-21T11:13:39.534Z,959.07
2023-01-21T11:14:39.511Z,959.12
2023-01-21T11:15:39.506Z,959.12
2023-01-21T11:16:39.478Z,959.12
2023-01-21T11:17:39.479Z,959.14
2023-01-21T11:18:39.427Z,959.11
2023-01-21T11:19:39.405Z,959.01
2023-01-21T11:20:39.382Z,959.15
2023-01-21T11:21:39.361Z,959.13
2023-01-21T11:22:39.351Z,959.05
2023-01-21T11:23:39.366Z,959.13
2023-01-21T11:24:39.297Z,959.13
2023-01-21T11:25:39.272Z,959.14
2023-01-21T11:26:39.255Z,959.14
2023-01-21T11:27:39.240Z,959.13
2023-01-21T11:28:39.209Z,959.09
2023-01-21T11:29:39.186Z,959.08
2023-01-21T11:30:54.905Z,959.05
2023-01-21T11:31:39.213Z,959.06
2023-01-21T11:32:39.123Z,959.01
2023-01-21T11:33:39.134Z,959.08
2023-01-21T11:34:39.081Z,959.04
2023-01-21T11:35:39.061Z,959.06
2023-01-21T11:36:39.037Z,959.05
2023-01-21T11:37:39.019Z,959.06
2023-01-21T11:38:38.995Z,958.97
2023-01-21T11:39:38.985Z,958.98
2023-01-21T11:40:38.952Z,959.04
2023-01-21T11:41:38.933Z,959.05
2023-01-21T11:42:38.909Z,959
2023-01-21T11:43:38.887Z,959.1
2023-01-21T11:44:38.866Z,959.09
2023-01-21T11:45:38.869Z,959.03
2023-01-21T11:46:38.831Z,959.05
2023-01-21T11:47:38.811Z,959.03
2023-01-21T11:48:38.778Z,958.98
2023-01-21T11:49:38.788Z,959.01
2023-01-21T11:50:38.744Z,959.03
2023-01-21T11:51:38.727Z,959.01
2023-01-21T11:52:38.693Z,958.97
2023-01-21T11:53:38.677Z,958.87
2023-01-21T11:54:38.655Z,958.89
2023-01-21T11:55:38.629Z,958.97
2023-01-21T11:56:38.611Z,958.94
2023-01-21T11:57:38.587Z,958.97
2023-01-21T11:58:38.564Z,958.94
2023-01-21T11:59:38.544Z,958.91
2023-01-21T12:00:38.521Z,958.9
2023-01-21T12:01:38.500Z,958.92
2023-01-21T12:02:38.495Z,958.88
2023-01-21T12:03:39.289Z,958.93
2023-01-21T12:04:39.194Z,958.91
2023-01-21T12:05:39.203Z,958.86
2023-01-21T12:06:39.151Z,958.86
2023-01-21T12:07:39.135Z,958.93
2023-01-21T12:08:39.107Z,958.87
2023-01-21T12:09:39.087Z,958.86
2023-01-21T12:10:39.070Z,958.88
2023-01-21T12:11:39.046Z,958.83
2023-01-21T12:12:39.021Z,958.84
2023-01-21T12:13:38.999Z,958.85
2023-01-21T12:14:38.979Z,958.8
2023-01-21T12:15:39.023Z,958.8
2023-01-21T12:16:38.950Z,958.81
2023-01-21T12:17:40.125Z,958.9
2023-01-21T12:18:38.892Z,958.85
2023-01-21T12:19:38.872Z,958.85
2023-01-21T12:20:38.851Z,958.85
2023-01-21T12:21:38.869Z,958.8
2023-01-21T12:22:38.814Z,958.82
2023-01-21T12:23:38.793Z,958.83
2023-01-21T12:24:38.765Z,958.82
2023-01-21T12:25:39.426Z,958.82
2023-01-21T12:26:39.408Z,958.73
2023-01-21T12:27:39.386Z,958.8
2023-01-21T12:28:39.364Z,958.75
2023-01-21T12:29:39.339Z,958.74
2023-01-21T12:30:39.357Z,958.76
2023-01-21T12:31:39.332Z,958.75
2023-01-21T12:32:39.286Z,958.81
2023-01-21T12:33:39.256Z,958.75
2023-01-21T12:34:39.255Z,958.68
2023-01-21T12:35:39.215Z,958.69
2023-01-21T12:36:39.194Z,958.73
2023-01-21T12:37:39.197Z,958.68
2023-01-21T12:38:39.150Z,958.75
2023-01-21T12:39:39.129Z,958.74
2023-01-21T12:40:39.118Z,958.7
2023-01-21T12:41:39.086Z,958.71
2023-01-21T12:42:39.064Z,958.62
2023-01-21T12:43:39.041Z,958.6
2023-01-21T12:44:39.022Z,958.65
2023-01-21T12:45:38.998Z,958.63
2023-01-21T12:46:39.017Z,958.65
2023-01-21T12:47:39.763Z,958.65